Time;durP1;ratioP1;P1;durP2;ratioP2;P2;SDS_P1;SDS_P2;PMS_P1;PMS_P2;Temp;Humidity;BMP_temperature;BMP_pressure;BME280_temperature;BME280_humidity;BME280_pressure;Samples;Min_cycle;Max_cycle;Signal;HPM_P1;HPM_P2
2022/12/29 00:02:22;;;;;;;1.38;0.90;;;8.00;99.90;;;;;;5064935;28;19921;-64
2022/12/29 00:04:48;;;;;;;;;;;8.00;99.90;;;;;;5075704;28;20062;-63
2022/12/29 00:07:14;;;;;;;1.88;0.93;;;8.00;99.90;;;;;;5075781;28;20081;-63
2022/12/29 00:09:40;;;;;;;;;;;8.00;99.90;;;;;;5081744;28;20036;-63
2022/12/29 00:12:05;;;;;;;5.45;1.52;;;8.00;99.90;;;;;;5077505;28;19922;-64
2022/12/29 00:17:15;;;;;;;1.40;0.73;;;8.00;99.90;;;;;;5066548;28;20040;-64
2022/12/29 00:36:28;;;;;;;2.13;0.80;;;8.30;99.90;;;;;;5051811;28;20045;-64
2022/12/29 00:44:30;;;;;;;1.87;0.70;;;8.30;99.90;;;;;;5047536;28;20045;-64
2022/12/29 00:46:56;;;;;;;;;;;8.40;99.90;;;;;;5056048;28;20817;-64
2022/12/29 00:49:30;;;;;;;1.40;0.60;;;8.40;99.90;;;;;;5061027;28;19921;-64
2022/12/29 00:52:00;;;;;;;0.63;0.50;;;8.50;99.90;;;;;;5063616;28;20047;-63
2022/12/29 00:54:32;;;;;;;2.17;0.80;;;8.50;99.90;;;;;;5062952;28;20603;-62
2022/12/29 00:56:58;;;;;;;1.23;0.77;;;8.50;99.90;;;;;;5058053;28;20087;-64
2022/12/29 00:59:24;;;;;;;;;;;8.50;99.90;;;;;;5057660;28;20133;-63
2022/12/29 01:01:51;;;;;;;1.95;0.60;;;8.50;99.90;;;;;;5066157;28;20279;-63
2022/12/29 01:04:17;;;;;;;0.98;0.55;;;8.50;99.90;;;;;;5057991;28;20037;-64
2022/12/29 01:06:42;;;;;;;;;;;8.60;99.90;;;;;;5051622;28;20044;-63
2022/12/29 01:11:53;;;;;;;1.65;0.60;;;8.60;99.90;;;;;;5058268;28;20044;-64
2022/12/29 01:14:19;;;;;;;;;;;8.60;99.90;;;;;;5065805;28;20091;-64
2022/12/29 01:16:45;;;;;;;2.80;1.35;;;8.60;99.90;;;;;;5055985;28;19921;-64
2022/12/29 01:19:11;;;;;;;0.90;0.60;;;8.60;99.90;;;;;;5061986;28;20036;-64
2022/12/29 01:21:37;;;;;;;1.02;0.70;;;8.60;99.90;;;;;;5062145;28;20112;-64
2022/12/29 01:24:02;;;;;;;;;;;8.50;99.90;;;;;;5066185;28;20104;-64
2022/12/29 01:26:28;;;;;;;0.68;0.40;;;8.60;99.90;;;;;;5060582;28;19924;-64
2022/12/29 01:28:53;;;;;;;1.15;0.70;;;8.60;99.90;;;;;;5073477;28;20028;-64
2022/12/29 01:31:19;;;;;;;;;;;8.60;99.90;;;;;;5062851;28;20125;-65
2022/12/29 01:33:45;;;;;;;1.02;0.40;;;8.60;99.90;;;;;;5058439;28;20483;-64
2022/12/29 01:36:13;;;;;;;;;;;8.60;99.90;;;;;;5064349;28;20198;-63
2022/12/29 01:38:41;;;;;;;0.50;0.50;;;8.60;99.90;;;;;;5060939;28;19927;-63
2022/12/29 01:41:10;;;;;;;1.05;0.60;;;8.70;99.90;;;;;;5070066;28;20033;-64
2022/12/29 01:43:43;;;;;;;0.77;0.40;;;8.70;99.90;;;;;;5063516;28;20098;-64
2022/12/29 01:46:23;;;;;;;0.80;0.65;;;8.70;99.90;;;;;;5056144;28;20069;-64
2022/12/29 01:48:57;;;;;;;1.15;0.63;;;8.60;99.90;;;;;;5062097;28;20503;-63
2022/12/29 01:51:25;;;;;;;4.03;0.40;;;8.50;99.90;;;;;;5057320;28;20051;-64
2022/12/29 01:53:52;;;;;;;0.55;0.40;;;8.50;99.90;;;;;;5057236;28;20040;-63
2022/12/29 01:56:20;;;;;;;0.75;0.57;;;8.40;99.90;;;;;;5071816;28;20045;-63
2022/12/29 01:58:52;;;;;;;2.15;0.50;;;8.40;99.90;;;;;;5066503;28;20043;-64
2022/12/29 02:01:20;;;;;;;1.75;0.40;;;8.40;99.90;;;;;;5060821;28;20036;-63
2022/12/29 02:03:47;;;;;;;1.67;0.50;;;8.40;99.90;;;;;;5058740;28;20123;-63
2022/12/29 02:06:26;;;;;;;0.60;0.40;;;8.40;99.90;;;;;;5061090;28;20049;-63
2022/12/29 02:08:54;;;;;;;0.90;0.47;;;8.40;99.90;;;;;;5060982;28;20029;-64
2022/12/29 02:11:23;;;;;;;0.68;0.38;;;8.40;99.90;;;;;;5061780;28;20033;-63
2022/12/29 02:13:48;;;;;;;0.57;0.30;;;8.40;99.90;;;;;;5049809;28;20041;-63
2022/12/29 02:16:52;;;;;;;;;;;8.40;99.90;;;;;;5057636;28;20045;-63
2022/12/29 02:19:21;;;;;;;0.50;0.40;;;8.40;99.90;;;;;;5033600;28;20428;-63
2022/12/29 02:21:46;;;;;;;0.32;0.32;;;8.40;99.90;;;;;;5038179;28;20443;-63
2022/12/29 02:24:21;;;;;;;;;;;8.30;99.90;;;;;;5041146;28;20048;-64
2022/12/29 02:27:25;;;;;;;0.40;0.30;;;8.40;99.90;;;;;;5053623;28;20594;-64
2022/12/29 02:30:29;;;;;;;0.40;0.40;;;8.40;99.90;;;;;;5060397;28;20350;-63
2022/12/29 02:33:11;;;;;;;3.17;0.43;;;8.40;99.90;;;;;;5063184;28;20055;-64
2022/12/29 02:35:58;;;;;;;2.15;0.50;;;8.40;99.90;;;;;;5060779;28;20943;-64
2022/12/29 02:38:38;;;;;;;1.77;0.57;;;8.40;99.90;;;;;;5059439;28;20231;-63
2022/12/29 02:41:21;;;;;;;2.60;0.50;;;8.40;99.90;;;;;;5057126;28;20044;-64
2022/12/29 02:43:49;;;;;;;1.10;0.47;;;8.50;99.90;;;;;;5054715;28;20036;-63
2022/12/29 02:46:27;;;;;;;0.70;0.47;;;8.40;99.90;;;;;;5055739;28;20532;-64
2022/12/29 02:49:18;;;;;;;1.65;0.63;;;8.50;99.90;;;;;;5054244;28;20378;-64
2022/12/29 02:52:15;;;;;;;2.50;0.73;;;8.50;99.90;;;;;;5057763;28;20033;-63
2022/12/29 02:54:41;;;;;;;1.43;0.50;;;8.50;99.90;;;;;;5063831;28;20127;-63
2022/12/29 02:57:22;;;;;;;;;;;8.50;99.90;;;;;;5062574;28;20138;-63
2022/12/29 03:00:09;;;;;;;2.53;0.40;;;8.50;99.90;;;;;;5060902;28;19917;-63
2022/12/29 03:03:14;;;;;;;1.05;0.40;;;8.50;99.90;;;;;;5060246;28;20032;-63
2022/12/29 03:06:20;;;;;;;0.93;0.50;;;8.50;99.90;;;;;;5054107;28;20053;-63
2022/12/29 03:09:18;;;;;;;2.67;0.50;;;8.50;99.90;;;;;;5051533;28;20449;-62
2022/12/29 03:12:17;;;;;;;0.75;0.52;;;8.40;99.90;;;;;;5053115;28;20052;-62
2022/12/29 03:17:57;;;;;;;1.02;0.50;;;8.40;99.90;;;;;;5053868;28;20370;-63
2022/12/29 03:20:50;;;;;;;1.92;0.70;;;8.40;99.90;;;;;;5063889;28;20032;-63
2022/12/29 03:23:16;;;;;;;2.35;0.77;;;8.40;99.90;;;;;;5062129;28;20040;-63
2022/12/29 03:25:47;;;;;;;;;;;8.40;99.90;;;;;;5062530;28;20048;-63
2022/12/29 03:28:24;;;;;;;0.40;0.40;;;8.40;99.90;;;;;;5061925;28;19928;-63
2022/12/29 03:30:50;;;;;;;;;;;8.50;99.90;;;;;;5061656;28;20531;-63
2022/12/29 03:33:21;;;;;;;1.77;0.70;;;8.50;99.90;;;;;;5045663;28;19968;-63
2022/12/29 03:35:49;;;;;;;3.20;0.57;;;8.50;99.90;;;;;;5061674;28;20051;-63
2022/12/29 03:38:38;;;;;;;1.40;0.50;;;8.50;99.90;;;;;;5058351;28;20040;-63
2022/12/29 03:41:10;;;;;;;0.80;0.50;;;8.50;99.90;;;;;;5061102;28;20091;-64
2022/12/29 03:43:37;;;;;;;2.83;0.45;;;8.60;99.90;;;;;;5048673;28;20032;-66
2022/12/29 03:46:02;;;;;;;0.52;0.50;;;8.50;99.90;;;;;;5057471;28;20037;-63
2022/12/29 03:48:28;;;;;;;;;;;8.60;99.90;;;;;;5061783;28;20094;-62
2022/12/29 03:50:53;;;;;;;1.80;0.50;;;8.60;99.90;;;;;;5057021;28;19987;-63
2022/12/29 03:53:19;;;;;;;;;;;8.60;99.90;;;;;;5058761;28;20041;-62
2022/12/29 03:55:45;;;;;;;2.00;0.50;;;8.60;99.90;;;;;;5058857;28;19913;-62
2022/12/29 03:58:10;;;;;;;;;;;8.60;99.90;;;;;;5058103;28;20040;-63
2022/12/29 04:00:36;;;;;;;0.90;0.32;;;8.60;99.90;;;;;;5066641;28;19970;-63
2022/12/29 04:03:01;;;;;;;;;;;8.50;99.90;;;;;;5061636;28;20032;-63
2022/12/29 04:05:27;;;;;;;4.15;0.60;;;8.60;99.90;;;;;;5057722;28;19920;-63
2022/12/29 04:07:52;;;;;;;0.57;0.30;;;8.60;99.90;;;;;;5057832;28;20040;-63
2022/12/29 04:10:18;;;;;;;1.42;0.50;;;8.60;99.90;;;;;;5069011;28;20403;-63
2022/12/29 04:12:46;;;;;;;0.68;0.40;;;8.50;99.90;;;;;;5058317;28;20048;-63
2022/12/29 04:15:11;;;;;;;0.77;0.40;;;8.50;99.90;;;;;;5068124;28;20036;-63
2022/12/29 04:17:37;;;;;;;;;;;8.40;99.90;;;;;;5066880;28;20396;-63
2022/12/29 04:22:48;;;;;;;0.80;0.43;;;8.40;99.90;;;;;;5059538;28;20037;-63
2022/12/29 04:25:13;;;;;;;;;;;8.40;99.90;;;;;;5058895;28;20043;-63
2022/12/29 04:27:39;;;;;;;0.70;0.40;;;8.50;99.90;;;;;;5065386;28;19969;-63
2022/12/29 04:30:05;;;;;;;;;;;8.50;99.90;;;;;;5066286;28;20028;-63
2022/12/29 04:32:31;;;;;;;0.55;0.40;;;8.50;99.90;;;;;;5057711;28;19947;-63
2022/12/29 04:34:56;;;;;;;;;;;8.40;99.90;;;;;;5060228;28;20068;-64
2022/12/29 04:37:23;;;;;;;0.30;0.30;;;8.40;99.90;;;;;;5053689;28;19924;-63
2022/12/29 04:39:48;;;;;;;0.38;0.38;;;8.50;99.90;;;;;;5062061;28;20029;-63
2022/12/29 04:42:14;;;;;;;;;;;8.50;99.90;;;;;;5055197;28;20559;-63
2022/12/29 04:44:39;;;;;;;0.40;0.30;;;8.40;99.90;;;;;;5064735;28;19916;-63
2022/12/29 04:47:05;;;;;;;;;;;8.40;99.90;;;;;;5065330;28;20048;-63
2022/12/29 04:49:30;;;;;;;1.05;0.40;;;8.30;99.90;;;;;;5061872;28;19920;-63
2022/12/29 04:51:56;;;;;;;;;;;8.30;99.90;;;;;;5065625;28;20518;-63
2022/12/29 04:54:21;;;;;;;1.23;0.30;;;8.30;99.90;;;;;;5062915;28;20030;-63
2022/12/29 04:56:47;;;;;;;;;;;8.30;99.90;;;;;;5055425;28;20509;-63
2022/12/29 04:59:12;;;;;;;0.55;0.40;;;8.30;99.90;;;;;;5059993;28;20618;-63
2022/12/29 05:01:38;;;;;;;0.75;0.40;;;8.30;99.90;;;;;;5056652;28;20048;-63
2022/12/29 05:04:03;;;;;;;;;;;8.30;99.90;;;;;;5060936;28;20602;-62
2022/12/29 05:06:29;;;;;;;0.30;0.20;;;8.30;99.90;;;;;;5058065;28;19924;-63
2022/12/29 05:08:55;;;;;;;6.90;0.52;;;8.30;99.90;;;;;;5066693;28;20033;-62
2022/12/29 05:11:20;;;;;;;;;;;8.40;99.90;;;;;;5054941;28;20029;-62
2022/12/29 05:13:46;;;;;;;0.30;0.20;;;8.40;99.90;;;;;;5063375;28;20006;-63
2022/12/29 05:16:12;;;;;;;0.20;0.20;;;8.40;99.90;;;;;;5057081;28;20037;-60
2022/12/29 05:18:38;;;;;;;;;;;8.50;99.90;;;;;;5060802;28;20041;-63
2022/12/29 05:21:03;;;;;;;0.30;0.20;;;8.50;99.90;;;;;;5062343;28;19921;-63
2022/12/29 05:23:29;;;;;;;;;;;8.50;99.90;;;;;;5064574;28;20229;-63
2022/12/29 05:25:54;;;;;;;0.77;0.30;;;8.50;99.90;;;;;;5061054;28;19958;-63
2022/12/29 05:28:20;;;;;;;;;;;8.50;99.90;;;;;;5056561;28;20507;-62
2022/12/29 05:30:49;;;;;;;0.65;0.30;;;8.60;99.90;;;;;;5061556;28;19956;-63
2022/12/29 05:33:17;;;;;;;0.40;0.30;;;8.50;99.90;;;;;;5058939;28;20067;-63
2022/12/29 05:35:43;;;;;;;1.02;0.40;;;8.50;99.90;;;;;;5057765;28;20488;-63
2022/12/29 05:38:09;;;;;;;;;;;8.50;99.90;;;;;;5076753;28;20036;-62
2022/12/29 05:40:35;;;;;;;1.33;0.40;;;8.60;99.90;;;;;;5069685;28;19921;-61
2022/12/29 05:43:00;;;;;;;;;;;8.60;99.90;;;;;;5054993;28;20047;-63
2022/12/29 05:45:26;;;;;;;1.50;0.47;;;8.50;99.90;;;;;;5060333;28;19995;-64
2022/12/29 05:47:51;;;;;;;;;;;8.60;99.90;;;;;;5060924;28;20041;-63
2022/12/29 05:50:17;;;;;;;0.70;0.30;;;8.60;99.90;;;;;;5070825;28;20007;-62
2022/12/29 05:52:43;;;;;;;2.15;0.40;;;8.60;99.90;;;;;;5063619;28;20032;-63
2022/12/29 05:55:09;;;;;;;1.13;0.43;;;8.60;99.90;;;;;;5059801;28;20508;-62
2022/12/29 05:57:35;;;;;;;1.33;0.40;;;8.70;99.90;;;;;;5061199;28;20489;-63
2022/12/29 06:00:00;;;;;;;;;;;8.70;99.90;;;;;;5058834;28;20040;-65
2022/12/29 06:02:26;;;;;;;0.65;0.38;;;8.70;99.90;;;;;;5051406;28;20362;-63
2022/12/29 06:04:51;;;;;;;;;;;8.70;99.90;;;;;;5062232;28;20037;-63
2022/12/29 06:07:17;;;;;;;1.20;0.38;;;8.80;99.90;;;;;;5050509;28;19921;-63
2022/12/29 06:09:42;;;;;;;1.35;0.73;;;8.80;99.90;;;;;;5058811;28;20129;-64
2022/12/29 06:12:08;;;;;;;;;;;8.70;99.90;;;;;;5060689;28;20058;-63
2022/12/29 06:14:34;;;;;;;0.88;0.40;;;8.70;99.90;;;;;;5063445;28;19984;-63
2022/12/29 06:16:59;;;;;;;;;;;8.70;99.90;;;;;;5056321;28;20044;-64
2022/12/29 06:19:25;;;;;;;0.55;0.30;;;8.70;99.90;;;;;;5058725;28;19920;-66
2022/12/29 06:21:52;;;;;;;;;;;8.70;99.90;;;;;;5057773;28;20111;-62
2022/12/29 06:24:18;;;;;;;1.02;0.40;;;8.70;99.90;;;;;;5056142;28;19921;-61
2022/12/29 06:26:43;;;;;;;;;;;8.70;99.90;;;;;;5058396;28;20044;-62
2022/12/29 06:29:09;;;;;;;1.83;0.40;;;8.60;99.90;;;;;;5065742;28;19920;-63
2022/12/29 06:31:34;;;;;;;;;;;8.70;99.90;;;;;;5061717;28;20489;-63
2022/12/29 06:34:00;;;;;;;1.00;0.20;;;8.70;99.90;;;;;;5062029;28;19956;-63
2022/12/29 06:36:26;;;;;;;;;;;8.70;99.90;;;;;;5057792;28;20040;-63
2022/12/29 06:38:52;;;;;;;2.42;0.50;;;8.80;99.90;;;;;;5063665;28;19928;-63
2022/12/29 06:41:18;;;;;;;;;;;8.70;99.90;;;;;;5063554;28;20032;-63
2022/12/29 06:43:44;;;;;;;1.05;0.30;;;8.70;99.90;;;;;;5065595;28;19931;-62
2022/12/29 06:46:09;;;;;;;;;;;8.80;99.90;;;;;;5069907;28;20429;-63
2022/12/29 06:48:35;;;;;;;1.20;0.50;;;8.90;99.90;;;;;;5058565;28;19916;-63
2022/12/29 06:51:01;;;;;;;0.95;0.40;;;8.80;99.90;;;;;;5055237;28;20202;-63
2022/12/29 06:53:26;;;;;;;1.48;0.45;;;8.80;99.90;;;;;;5070074;28;20043;-60
2022/12/29 06:55:52;;;;;;;0.57;0.30;;;8.80;99.90;;;;;;5066479;28;20036;-63
2022/12/29 06:58:18;;;;;;;;;;;8.70;99.90;;;;;;5057723;28;20029;-62
2022/12/29 07:00:43;;;;;;;0.85;0.40;;;8.70;99.90;;;;;;5072953;28;20021;-63
2022/12/29 07:03:09;;;;;;;;;;;8.60;99.90;;;;;;5064365;28;20059;-64
2022/12/29 07:05:34;;;;;;;2.03;0.40;;;8.60;99.90;;;;;;5057155;28;19920;-62
2022/12/29 07:08:00;;;;;;;0.77;0.40;;;8.60;99.90;;;;;;5059889;28;20500;-62
2022/12/29 07:10:26;;;;;;;2.38;0.43;;;8.60;99.90;;;;;;5057192;28;20171;-63
2022/12/29 07:12:52;;;;;;;1.23;0.32;;;8.60;99.90;;;;;;5061832;28;20036;-62
2022/12/29 07:15:17;;;;;;;0.55;0.30;;;8.60;99.90;;;;;;5064461;28;20060;-63
2022/12/29 07:17:43;;;;;;;0.50;0.30;;;8.50;99.90;;;;;;5054280;28;20088;-65
2022/12/29 07:20:10;;;;;;;2.15;0.60;;;8.50;99.90;;;;;;5075713;28;20139;-63
2022/12/29 07:22:36;;;;;;;1.95;0.30;;;8.50;99.90;;;;;;5059367;28;20669;-63
2022/12/29 07:25:03;;;;;;;;;;;8.50;99.90;;;;;;5064803;28;20472;-63
2022/12/29 07:27:28;;;;;;;;;;;8.50;99.90;;;;;;5063577;28;19970;-64
2022/12/29 07:29:54;;;;;;;1.67;0.45;;;8.40;99.90;;;;;;5066885;28;19967;-64
2022/12/29 07:32:19;;;;;;;;;;;8.40;99.90;;;;;;5061419;28;20044;-63
2022/12/29 07:34:47;;;;;;;2.25;0.70;;;8.40;99.90;;;;;;5059307;28;19951;-64
2022/12/29 07:37:14;;;;;;;0.65;0.20;;;8.40;99.90;;;;;;5053302;28;20045;-64
2022/12/29 07:39:39;;;;;;;0.95;0.47;;;8.30;99.90;;;;;;5059748;28;20037;-64
2022/12/29 07:42:05;;;;;;;;;;;8.30;99.90;;;;;;5066296;28;20061;-64
2022/12/29 07:44:31;;;;;;;0.50;0.20;;;8.30;99.90;;;;;;5068238;28;19917;-65
2022/12/29 07:46:56;;;;;;;0.20;0.20;;;8.30;99.90;;;;;;5057094;28;20053;-63
2022/12/29 07:49:22;;;;;;;;;;;8.20;99.90;;;;;;5063278;28;20043;-63
2022/12/29 07:51:47;;;;;;;0.90;0.35;;;8.20;99.90;;;;;;5064958;28;20326;-63
2022/12/29 07:54:13;;;;;;;1.33;0.30;;;8.10;99.90;;;;;;5059451;28;20038;-64
2022/12/29 07:56:39;;;;;;;0.32;0.20;;;8.10;99.90;;;;;;5064216;28;20039;-64
2022/12/29 07:59:04;;;;;;;;;;;8.10;99.90;;;;;;5063053;28;20404;-65
2022/12/29 08:01:30;;;;;;;0.52;0.20;;;8.10;99.90;;;;;;5065624;28;20433;-65
2022/12/29 08:03:55;;;;;;;;;;;8.10;99.90;;;;;;5066877;28;20500;-62
2022/12/29 08:06:22;;;;;;;1.15;0.50;;;8.10;99.90;;;;;;5063635;28;19927;-63
2022/12/29 08:08:47;;;;;;;5.70;0.68;;;8.10;99.90;;;;;;5060196;28;20045;-64
2022/12/29 08:11:13;;;;;;;;;;;8.00;99.90;;;;;;5061752;28;20085;-63
2022/12/29 08:13:39;;;;;;;0.30;0.20;;;8.00;99.90;;;;;;5067460;28;19917;-63
2022/12/29 08:16:04;;;;;;;0.80;0.20;;;7.90;99.90;;;;;;5064937;28;20071;-63
2022/12/29 08:18:31;;;;;;;1.13;0.45;;;7.80;99.90;;;;;;5069010;28;20615;-63
2022/12/29 08:21:02;;;;;;;1.30;0.50;;;7.80;99.90;;;;;;5064699;28;20039;-63
2022/12/29 08:23:28;;;;;;;3.90;0.47;;;7.80;99.90;;;;;;5059235;28;20036;-64
2022/12/29 08:26:00;;;;;;;;;;;7.80;99.90;;;;;;5066346;28;20083;-64
2022/12/29 08:28:26;;;;;;;2.17;0.40;;;7.70;99.90;;;;;;5055451;28;20147;-64
2022/12/29 08:30:52;;;;;;;5.80;0.43;;;7.70;99.90;;;;;;5063324;28;20032;-65
2022/12/29 08:33:18;;;;;;;;;;;7.70;99.90;;;;;;5067591;28;20037;-61
2022/12/29 08:35:44;;;;;;;3.33;0.50;;;7.70;99.90;;;;;;5064884;28;20364;-64
2022/12/29 08:38:11;;;;;;;2.00;0.57;;;7.70;99.90;;;;;;5062665;28;20051;-64
2022/12/29 08:40:37;;;;;;;2.05;0.50;;;7.70;99.90;;;;;;5069533;28;20044;-63
2022/12/29 08:43:02;;;;;;;;;;;7.70;99.90;;;;;;5069668;28;20048;-64
2022/12/29 08:45:28;;;;;;;3.15;0.50;;;7.80;99.90;;;;;;5075710;28;20009;-59
2022/12/29 08:47:54;;;;;;;2.75;0.63;;;7.80;99.90;;;;;;5057080;28;20044;-63
2022/12/29 08:50:19;;;;;;;;;;;7.80;99.90;;;;;;5063244;28;20755;-62
2022/12/29 08:52:45;;;;;;;2.65;0.70;;;7.80;99.90;;;;;;5065713;28;19923;-65
2022/12/29 08:55:10;;;;;;;;;;;7.90;99.90;;;;;;5079227;28;20472;-63
2022/12/29 08:57:36;;;;;;;2.13;0.50;;;7.90;99.90;;;;;;5063102;28;19959;-62
2022/12/29 09:00:04;;;;;;;2.55;0.63;;;7.90;99.90;;;;;;5067000;28;20036;-62
2022/12/29 09:02:30;;;;;;;2.75;0.60;;;7.90;99.90;;;;;;5059518;28;20458;-60
2022/12/29 09:04:57;;;;;;;;;;;8.00;99.90;;;;;;5062986;28;20037;-62
2022/12/29 09:07:23;;;;;;;4.90;0.73;;;8.00;99.90;;;;;;5063595;28;20416;-62
2022/12/29 09:09:49;;;;;;;2.80;0.60;;;8.00;99.90;;;;;;5060545;28;20519;-63
2022/12/29 09:12:15;;;;;;;;;;;8.00;99.90;;;;;;5061868;28;20036;-63
2022/12/29 09:14:42;;;;;;;2.10;0.60;;;8.10;99.90;;;;;;5070534;28;19950;-61
2022/12/29 09:19:52;;;;;;;4.32;0.70;;;8.20;99.90;;;;;;5059437;28;20036;-62
2022/12/29 09:22:18;;;;;;;;;;;8.20;99.90;;;;;;5058252;28;20095;-63
2022/12/29 09:24:44;;;;;;;0.60;0.43;;;8.30;99.90;;;;;;5062870;28;19920;-63
2022/12/29 09:27:09;;;;;;;3.03;0.60;;;8.30;99.90;;;;;;5064337;28;20036;-63
2022/12/29 09:29:35;;;;;;;;;;;8.40;99.90;;;;;;5062679;28;20401;-62
2022/12/29 09:32:00;;;;;;;1.33;0.47;;;8.50;99.90;;;;;;5051919;28;19932;-63
2022/12/29 09:34:26;;;;;;;3.05;0.80;;;8.50;99.90;;;;;;5063500;28;20120;-63
2022/12/29 09:36:52;;;;;;;;;;;8.50;99.90;;;;;;5057615;28;20080;-62
2022/12/29 09:39:17;;;;;;;5.20;0.70;;;8.50;99.90;;;;;;5059769;28;19993;-62
2022/12/29 09:41:48;;;;;;;;;;;8.50;99.90;;;;;;5052495;28;20033;-63
2022/12/29 09:44:42;;;;;;;2.78;0.73;;;8.40;99.90;;;;;;5061794;28;19983;-63
2022/12/29 09:47:13;;;;;;;3.38;0.63;;;8.40;99.90;;;;;;5059794;28;20052;-62
2022/12/29 09:49:49;;;;;;;4.40;0.70;;;8.30;99.90;;;;;;5064758;28;20124;-62
2022/12/29 09:52:48;;;;;;;2.42;0.90;;;8.30;99.90;;;;;;5063891;28;20066;-63
2022/12/29 09:55:21;;;;;;;3.55;0.70;;;8.30;99.90;;;;;;5042388;28;20673;-62
2022/12/29 09:57:54;;;;;;;2.58;0.73;;;8.30;99.90;;;;;;5046067;28;20519;-63
2022/12/29 10:00:23;;;;;;;6.70;1.38;;;8.30;99.90;;;;;;5052516;28;20041;-62
2022/12/29 10:03:15;;;;;;;5.40;0.57;;;8.30;99.90;;;;;;5083835;28;20039;-62
2022/12/29 10:05:52;;;;;;;4.65;1.15;;;8.30;99.90;;;;;;5068295;28;20878;-62
2022/12/29 10:08:28;;;;;;;1.92;0.73;;;8.20;99.90;;;;;;5060477;28;20032;-62
2022/12/29 10:11:04;;;;;;;1.40;0.50;;;8.20;99.90;;;;;;5061685;28;20096;-62
2022/12/29 10:14:03;;;;;;;2.75;0.50;;;8.20;99.90;;;;;;5060045;28;20071;-62
2022/12/29 10:16:37;;;;;;;5.60;0.93;;;8.30;99.90;;;;;;5057358;28;20720;-64
2022/12/29 10:19:41;;;;;;;5.07;0.80;;;8.30;99.90;;;;;;5060226;28;20701;-63
2022/12/29 10:22:38;;;;;;;4.40;0.90;;;8.30;99.90;;;;;;5049339;28;20485;-61
2022/12/29 10:25:18;;;;;;;7.47;0.73;;;8.30;99.90;;;;;;5057715;28;20492;-62
2022/12/29 10:27:48;;;;;;;2.00;0.40;;;8.30;99.90;;;;;;5055139;28;20479;-63
2022/12/29 10:30:14;;;;;;;3.28;0.98;;;8.40;99.90;;;;;;5073358;28;20048;-63
2022/12/29 10:32:55;;;;;;;6.80;1.30;;;8.40;99.90;;;;;;5055695;28;20056;-62
2022/12/29 10:35:24;;;;;;;5.10;0.90;;;8.40;99.90;;;;;;5052767;28;20852;-63
2022/12/29 10:38:08;;;;;;;3.90;0.85;;;8.50;99.90;;;;;;5051787;28;20131;-63
2022/12/29 10:40:50;;;;;;;3.58;0.80;;;8.50;99.90;;;;;;5054078;28;20712;-63
2022/12/29 10:43:26;;;;;;;6.32;0.73;;;8.60;99.90;;;;;;5047431;28;20108;-63
2022/12/29 10:45:54;;;;;;;5.55;0.75;;;8.60;99.90;;;;;;5057382;28;20041;-62
2022/12/29 10:48:24;;;;;;;3.28;0.60;;;8.70;99.90;;;;;;5062323;28;20048;-63
2022/12/29 10:50:54;;;;;;;4.20;0.80;;;8.70;99.90;;;;;;5057454;28;20525;-63
2022/12/29 10:53:25;;;;;;;5.22;1.15;;;8.60;99.90;;;;;;5061059;28;20036;-63
2022/12/29 10:55:51;;;;;;;3.63;0.77;;;8.60;99.90;;;;;;5061910;28;20680;-62
2022/12/29 10:58:17;;;;;;;3.83;0.70;;;8.60;99.90;;;;;;5062338;28;20535;-62
2022/12/29 11:00:49;;;;;;;2.90;0.70;;;8.50;99.90;;;;;;5058686;28;20036;-63
2022/12/29 11:03:14;;;;;;;4.95;0.80;;;8.50;99.90;;;;;;5059999;28;20040;-62
2022/12/29 11:05:46;;;;;;;;;;;8.40;99.90;;;;;;5063467;28;20039;-62
2022/12/29 11:08:19;;;;;;;5.50;1.08;;;8.40;99.90;;;;;;5050396;28;19940;-62
2022/12/29 11:10:46;;;;;;;7.35;1.15;;;8.30;99.90;;;;;;5064324;28;20068;-63
2022/12/29 11:13:45;;;;;;;5.13;0.70;;;8.30;99.90;;;;;;5053590;28;20112;-63
2022/12/29 11:16:12;;;;;;;4.82;1.05;;;8.20;99.90;;;;;;5055040;28;20051;-62
2022/12/29 11:18:39;;;;;;;7.88;0.68;;;8.20;99.90;;;;;;5055595;28;20059;-63
2022/12/29 11:21:40;;;;;;;4.00;0.85;;;8.20;99.90;;;;;;5061061;28;20063;-62
2022/12/29 11:24:27;;;;;;;5.43;0.90;;;8.20;99.90;;;;;;5073338;28;20085;-62
2022/12/29 11:26:58;;;;;;;7.97;1.65;;;8.20;99.90;;;;;;5064555;28;20076;-61
2022/12/29 11:29:27;;;;;;;4.30;0.85;;;8.10;99.90;;;;;;5059741;28;20123;-62
2022/12/29 11:31:58;;;;;;;4.55;1.00;;;8.10;99.90;;;;;;5057676;28;20075;-63
2022/12/29 11:34:26;;;;;;;4.55;1.00;;;8.10;99.90;;;;;;5061391;28;20116;-62
2022/12/29 11:36:58;;;;;;;6.43;0.90;;;8.10;99.90;;;;;;5058184;28;20066;-63
2022/12/29 11:39:32;;;;;;;8.13;0.85;;;8.10;99.90;;;;;;5068802;28;20637;-63
2022/12/29 11:41:59;;;;;;;6.18;0.77;;;8.10;99.90;;;;;;5058963;28;20511;-62
2022/12/29 11:44:26;;;;;;;2.38;0.75;;;8.10;99.90;;;;;;5066296;28;20045;-63
2022/12/29 11:46:52;;;;;;;5.82;1.30;;;8.10;99.90;;;;;;5063336;28;20119;-60
2022/12/29 11:49:24;;;;;;;7.20;1.30;;;8.00;99.90;;;;;;5067929;28;20072;-63
2022/12/29 11:51:52;;;;;;;5.05;1.13;;;8.00;99.90;;;;;;5065959;28;20040;-64
2022/12/29 11:54:38;;;;;;;7.43;1.00;;;8.10;99.90;;;;;;5061641;28;20048;-61
2022/12/29 11:57:14;;;;;;;6.23;1.40;;;8.10;99.90;;;;;;5046980;28;20078;-63
2022/12/29 11:59:51;;;;;;;5.60;0.95;;;8.10;99.90;;;;;;5054933;28;20093;-61
2022/12/29 12:02:22;;;;;;;3.72;0.80;;;8.10;99.90;;;;;;5047093;28;20131;-63
2022/12/29 12:04:58;;;;;;;6.40;0.90;;;8.10;99.90;;;;;;5057938;28;20496;-63
2022/12/29 12:07:43;;;;;;;5.75;1.35;;;8.10;99.90;;;;;;5056243;28;20090;-61
2022/12/29 12:10:22;;;;;;;4.55;1.08;;;8.10;99.90;;;;;;5058260;28;20056;-62
2022/12/29 12:13:08;;;;;;;6.32;0.95;;;8.10;99.90;;;;;;5052205;28;20112;-61
2022/12/29 12:15:41;;;;;;;5.70;1.17;;;8.10;99.90;;;;;;5070567;28;20040;-63
2022/12/29 12:18:24;;;;;;;3.65;1.00;;;8.10;99.90;;;;;;5062947;28;20033;-61
2022/12/29 12:20:57;;;;;;;9.43;1.00;;;8.10;99.90;;;;;;5056180;28;20041;-63
2022/12/29 12:23:40;;;;;;;8.80;1.65;;;8.10;99.90;;;;;;5061711;28;20044;-62
2022/12/29 12:26:28;;;;;;;10.77;1.33;;;8.10;99.90;;;;;;5055565;28;20041;-62
2022/12/29 12:29:11;;;;;;;4.05;0.95;;;8.10;99.90;;;;;;5063075;28;20036;-62
2022/12/29 12:32:08;;;;;;;5.88;1.15;;;8.10;99.90;;;;;;5053581;28;20332;-63
2022/12/29 12:34:41;;;;;;;8.82;1.38;;;8.10;99.90;;;;;;5061934;28;20036;-62
2022/12/29 12:37:33;;;;;;;4.57;1.27;;;8.10;99.90;;;;;;5049810;28;20040;-62
2022/12/29 12:40:33;;;;;;;4.20;0.80;;;8.10;99.90;;;;;;5055443;28;20116;-61
2022/12/29 12:43:18;;;;;;;4.68;1.05;;;8.00;99.90;;;;;;5067214;28;20052;-63
2022/12/29 12:46:19;;;;;;;22.95;1.30;;;8.00;99.90;;;;;;5057694;28;20119;-63
2022/12/29 12:49:02;;;;;;;4.63;1.13;;;8.00;99.90;;;;;;5053322;28;20094;-61
2022/12/29 12:51:40;;;;;;;2.55;0.77;;;8.00;99.90;;;;;;5064214;28;20384;-62
2022/12/29 12:54:18;;;;;;;5.03;1.25;;;7.90;99.90;;;;;;5062048;28;20054;-61
2022/12/29 12:57:14;;;;;;;8.52;1.15;;;7.90;99.90;;;;;;5058797;28;20036;-60
2022/12/29 13:00:09;;;;;;;5.88;1.30;;;7.90;99.90;;;;;;5056072;28;20083;-62
2022/12/29 13:02:54;;;;;;;3.88;1.17;;;7.80;99.90;;;;;;5053614;28;20036;-61
2022/12/29 13:05:32;;;;;;;4.22;1.00;;;7.80;99.90;;;;;;5061541;28;20041;-62
2022/12/29 13:08:16;;;;;;;5.57;1.05;;;7.80;99.90;;;;;;5059780;28;20040;-62
2022/12/29 13:10:55;;;;;;;3.55;0.70;;;7.70;99.90;;;;;;5056732;28;20107;-62
2022/12/29 13:13:47;;;;;;;5.35;1.20;;;7.50;99.90;;;;;;5055878;28;20731;-62
2022/12/29 13:16:34;;;;;;;2.90;0.93;;;7.40;99.90;;;;;;5059861;28;20041;-59
2022/12/29 13:19:28;;;;;;;3.25;0.90;;;7.40;99.90;;;;;;5069881;28;20036;-63
2022/12/29 13:22:15;;;;;;;10.73;1.17;;;7.40;99.90;;;;;;5052856;28;20529;-62
2022/12/29 13:25:04;;;;;;;2.88;0.82;;;7.40;99.90;;;;;;5058820;28;20037;-60
2022/12/29 13:27:38;;;;;;;6.72;1.67;;;7.40;99.90;;;;;;5040028;28;20567;-62
2022/12/29 13:30:17;;;;;;;4.80;1.00;;;7.30;99.90;;;;;;5066303;28;20047;-62
2022/12/29 13:33:01;;;;;;;8.15;1.33;;;7.30;99.90;;;;;;5053431;28;20033;-62
2022/12/29 13:35:35;;;;;;;8.10;1.05;;;7.40;99.90;;;;;;5038500;28;20037;-59
2022/12/29 13:38:14;;;;;;;6.63;1.08;;;7.40;99.90;;;;;;5045040;28;20036;-62
2022/12/29 13:40:44;;;;;;;5.85;1.25;;;7.40;99.90;;;;;;5043389;28;20107;-61
2022/12/29 13:43:13;;;;;;;2.85;0.57;;;7.50;99.90;;;;;;5039773;28;20091;-62
2022/12/29 13:45:40;;;;;;;5.32;0.90;;;7.40;99.90;;;;;;5056645;28;20041;-60
2022/12/29 13:48:16;;;;;;;4.35;0.90;;;7.30;99.90;;;;;;5050882;28;20052;-61
2022/12/29 13:50:43;;;;;;;;;;;7.30;99.90;;;;;;5045215;28;20714;-62
2022/12/29 13:53:26;;;;;;;7.47;0.80;;;7.30;99.90;;;;;;5033922;28;19921;-62
2022/12/29 13:56:06;;;;;;;2.92;0.60;;;7.30;99.90;;;;;;5034377;28;20045;-60
2022/12/29 13:58:44;;;;;;;8.60;0.80;;;7.30;99.90;;;;;;5034650;28;20040;-61
2022/12/29 14:01:17;;;;;;;3.03;0.75;;;7.30;99.90;;;;;;5038547;28;20037;-62
2022/12/29 14:03:50;;;;;;;7.85;1.05;;;7.30;99.90;;;;;;5064725;28;20404;-61
2022/12/29 14:06:24;;;;;;;3.33;0.85;;;7.30;99.90;;;;;;5057159;28;20041;-61
2022/12/29 14:08:55;;;;;;;10.38;1.60;;;7.30;99.90;;;;;;5056071;28;20055;-61
2022/12/29 14:11:26;;;;;;;3.95;1.25;;;7.40;99.90;;;;;;5060074;28;20041;-62
2022/12/29 14:13:52;;;;;;;6.72;1.02;;;7.40;99.90;;;;;;5054838;28;20977;-64
2022/12/29 14:16:27;;;;;;;;;;;7.30;99.90;;;;;;5066594;28;20057;-63